Time;durP1;ratioP1;P1;durP2;ratioP2;P2;SDS_P1;SDS_P2;PMS_P1;PMS_P2;Temp;Humidity;BMP_temperature;BMP_pressure;BME280_temperature;BME280_humidity;BME280_pressure;Samples;Min_cycle;Max_cycle;Signal;HPM_P1;HPM_P2
2020/12/23 08:49:12;;;;;;;6.35;2.33;;;;;;;;;;4990848;28;20097;-52
2020/12/23 08:51:39;;;;;;;6.72;3.17;;;;;;;;;;4994675;28;20053;-52
2020/12/23 08:54:13;;;;;;;6.70;2.10;;;;;;;;;;4994546;28;20484;-52
2020/12/23 08:56:47;;;;;;;6.45;1.98;;;;;;;;;;4994545;28;20643;-52
2020/12/23 08:59:15;;;;;;;8.73;2.22;;;;;;;;;;4994394;28;20018;-51
2020/12/23 09:01:43;;;;;;;7.28;2.60;;;;;;;;;;4994540;28;20022;-50
2020/12/23 09:04:11;;;;;;;7.22;2.30;;;;;;;;;;4994377;28;20018;-52
2020/12/23 09:06:47;;;;;;;6.05;2.70;;;;;;;;;;4994212;28;20422;-50
2020/12/23 09:09:17;;;;;;;7.57;2.28;;;;;;;;;;4994288;28;20042;-51
2020/12/23 09:11:47;;;;;;;5.45;2.00;;;;;;;;;;4994249;28;20486;-53
2020/12/23 09:14:43;;;;;;;8.52;2.63;;;;;;;;;;4994060;28;20134;-52
2020/12/23 09:17:13;;;;;;;6.07;2.25;;;;;;;;;;4977619;28;20066;-52
2020/12/23 09:19:59;;;;;;;7.07;1.92;;;;;;;;;;4994009;28;20036;-49
2020/12/23 09:22:36;;;;;;;5.35;2.35;;;;;;;;;;4994014;28;20108;-51
2020/12/23 09:25:12;;;;;;;6.95;2.45;;;;;;;;;;4993984;28;20057;-52
2020/12/23 09:27:39;;;;;;;9.88;2.53;;;;;;;;;;4993843;28;20061;-47
2020/12/23 09:30:07;;;;;;;7.32;2.13;;;;;;;;;;4994028;28;20049;-53
2020/12/23 09:32:34;;;;;;;7.80;1.90;;;;;;;;;;4993805;28;20019;-51
2020/12/23 09:35:14;;;;;;;7.05;2.35;;;;;;;;;;4993687;28;20509;-51
2020/12/23 09:37:41;;;;;;;7.13;2.35;;;;;;;;;;4993921;28;20031;-47
2020/12/23 09:40:08;;;;;;;7.72;2.28;;;;;;;;;;4993847;28;20022;-48
2020/12/23 09:42:35;;;;;;;4.68;2.05;;;;;;;;;;4993623;28;20125;-52
2020/12/23 09:45:03;;;;;;;4.55;2.10;;;;;;;;;;4993764;28;20487;-49
2020/12/23 09:47:30;;;;;;;7.13;2.47;;;;;;;;;;4993371;28;20046;-51
2020/12/23 09:49:57;;;;;;;5.47;2.17;;;;;;;;;;4993540;28;20156;-50
2020/12/23 09:52:24;;;;;;;4.25;1.95;;;;;;;;;;4993407;28;20032;-51
2020/12/23 09:54:51;;;;;;;4.78;2.38;;;;;;;;;;4993537;28;20029;-49
2020/12/23 09:57:18;;;;;;;9.50;1.90;;;;;;;;;;4993376;28;20524;-50
2020/12/23 09:59:45;;;;;;;6.00;1.98;;;;;;;;;;4993435;28;20061;-47
2020/12/23 10:02:12;;;;;;;5.43;1.92;;;;;;;;;;4993291;28;20045;-49
2020/12/23 10:04:39;;;;;;;4.32;1.95;;;;;;;;;;4993266;28;20106;-49
2020/12/23 10:07:08;;;;;;;3.58;1.73;;;;;;;;;;4993107;28;20022;-52
2020/12/23 10:09:35;;;;;;;6.63;1.52;;;;;;;;;;4993274;28;20026;-52
2020/12/23 10:12:02;;;;;;;9.70;2.58;;;;;;;;;;4993120;28;20020;-47
2020/12/23 10:14:29;;;;;;;6.28;1.83;;;;;;;;;;4993027;28;20030;-52
2020/12/23 10:16:56;;;;;;;5.72;1.70;;;;;;;;;;4993129;28;20029;-52
2020/12/23 10:19:23;;;;;;;6.97;2.20;;;;;;;;;;4993045;28;20022;-51
2020/12/23 10:21:50;;;;;;;5.75;1.75;;;;;;;;;;4992972;28;20041;-49
2020/12/23 10:24:17;;;;;;;5.45;1.90;;;;;;;;;;4993110;28;20383;-49
2020/12/23 10:26:45;;;;;;;4.85;1.50;;;;;;;;;;4992841;28;20054;-49
2020/12/23 10:29:12;;;;;;;7.85;2.00;;;;;;;;;;4992492;28;20034;-49
2020/12/23 10:31:39;;;;;;;5.25;1.77;;;;;;;;;;4993124;28;20747;-49
2020/12/23 10:34:06;;;;;;;4.15;1.60;;;;;;;;;;4992710;28;20025;-52
2020/12/23 10:36:33;;;;;;;2.65;1.33;;;;;;;;;;4992769;28;20049;-49
2020/12/23 10:39:01;;;;;;;42.30;3.72;;;;;;;;;;4992887;28;20017;-44
2020/12/23 10:41:28;;;;;;;63.63;5.97;;;;;;;;;;4975094;28;20072;-46
2020/12/23 10:43:55;;;;;;;147.07;15.35;;;;;;;;;;4988109;28;20068;-55
2020/12/23 10:46:22;;;;;;;112.20;12.20;;;;;;;;;;4990857;28;20467;-52
2020/12/23 10:48:49;;;;;;;124.97;11.80;;;;;;;;;;4989987;28;20088;-48
2020/12/23 10:51:16;;;;;;;78.57;8.27;;;;;;;;;;4990047;28;20033;-51
2020/12/23 10:53:43;;;;;;;138.80;14.43;;;;;;;;;;5001593;28;20022;-52
2020/12/23 10:56:10;;;;;;;103.82;11.77;;;;;;;;;;4990254;28;20026;-47
2020/12/23 10:58:37;;;;;;;99.90;9.68;;;;;;;;;;4988197;28;20030;-50
2020/12/23 11:01:07;;;;;;;82.28;9.43;;;;;;;;;;4991972;28;20109;-50
2020/12/23 11:03:35;;;;;;;85.70;8.65;;;;;;;;;;4992256;28;20030;-51
2020/12/23 11:06:02;;;;;;;42.65;5.38;;;;;;;;;;4992181;28;20014;-50
2020/12/23 11:08:29;;;;;;;44.40;5.20;;;;;;;;;;4990738;28;20027;-47
2020/12/23 11:10:56;;;;;;;45.42;4.55;;;;;;;;;;4991055;28;20101;-48
2020/12/23 11:13:23;;;;;;;105.30;9.32;;;;;;;;;;4988953;28;20077;-51
2020/12/23 11:15:50;;;;;;;61.28;6.25;;;;;;;;;;4991609;28;20089;-50
2020/12/23 11:18:17;;;;;;;55.20;5.40;;;;;;;;;;4991765;28;20048;-50
2020/12/23 11:20:44;;;;;;;63.60;6.68;;;;;;;;;;4991743;28;20027;-53
2020/12/23 11:23:23;;;;;;;73.88;8.52;;;;;;;;;;4988167;28;20034;-46
2020/12/23 11:25:50;;;;;;;68.60;7.50;;;;;;;;;;4991908;28;20102;-48
2020/12/23 11:28:17;;;;;;;82.85;8.10;;;;;;;;;;4991905;28;20038;-49
2020/12/23 11:30:45;;;;;;;50.72;6.95;;;;;;;;;;4992032;28;20602;-57
2020/12/23 11:33:12;;;;;;;49.25;6.20;;;;;;;;;;4992022;28;20040;-59
2020/12/23 11:35:39;;;;;;;50.22;7.00;;;;;;;;;;4991963;28;20394;-59
2020/12/23 11:38:06;;;;;;;71.07;7.72;;;;;;;;;;4974478;28;20019;-60
2020/12/23 11:40:33;;;;;;;57.15;6.97;;;;;;;;;;4994132;28;20088;-58
2020/12/23 11:43:00;;;;;;;47.33;6.05;;;;;;;;;;4995599;28;20101;-56
2020/12/23 11:45:27;;;;;;;47.38;6.65;;;;;;;;;;4995089;28;20101;-57
2020/12/23 11:47:54;;;;;;;40.35;5.45;;;;;;;;;;4991553;28;20053;-56
2020/12/23 11:50:21;;;;;;;52.83;5.90;;;;;;;;;;4980312;28;20053;-55
2020/12/23 11:52:48;;;;;;;40.05;5.60;;;;;;;;;;4995226;28;20262;-56
2020/12/23 11:55:18;;;;;;;45.78;5.82;;;;;;;;;;4991588;28;20019;-53
2020/12/23 11:57:45;;;;;;;38.65;5.22;;;;;;;;;;4995395;28;20019;-54
2020/12/23 12:00:13;;;;;;;34.45;4.28;;;;;;;;;;4993184;28;20026;-57
2020/12/23 12:02:40;;;;;;;26.20;5.10;;;;;;;;;;4995398;28;20025;-56
2020/12/23 12:05:09;;;;;;;25.85;3.95;;;;;;;;;;4995661;28;20022;-54
2020/12/23 12:07:36;;;;;;;33.13;5.18;;;;;;;;;;4995308;28;20038;-55
2020/12/23 12:10:05;;;;;;;30.83;3.97;;;;;;;;;;4995367;28;20398;-52
2020/12/23 12:12:32;;;;;;;31.23;4.15;;;;;;;;;;4995540;28;20023;-53
2020/12/23 12:14:59;;;;;;;18.92;3.20;;;;;;;;;;4995413;28;20031;-55
2020/12/23 12:17:27;;;;;;;23.77;4.38;;;;;;;;;;4995256;28;20048;-53
2020/12/23 12:19:54;;;;;;;21.52;3.90;;;;;;;;;;4995402;28;20090;-56
2020/12/23 12:22:21;;;;;;;20.48;3.92;;;;;;;;;;4995238;28;20030;-51
2020/12/23 12:24:48;;;;;;;21.83;3.53;;;;;;;;;;4995097;28;20482;-54
2020/12/23 12:27:16;;;;;;;37.03;4.70;;;;;;;;;;4995085;28;20034;-51
2020/12/23 12:29:43;;;;;;;23.35;4.15;;;;;;;;;;4995013;28;20037;-55
2020/12/23 12:32:09;;;;;;;27.60;4.75;;;;;;;;;;4994937;28;20026;-54
2020/12/23 12:34:36;;;;;;;21.48;4.07;;;;;;;;;;4995039;28;20541;-53
2020/12/23 12:37:03;;;;;;;29.33;3.95;;;;;;;;;;4995064;28;20022;-51
2020/12/23 12:39:30;;;;;;;30.38;4.95;;;;;;;;;;4993585;28;20027;-55
2020/12/23 12:42:01;;;;;;;26.05;3.53;;;;;;;;;;4994766;28;20499;-53
2020/12/23 12:44:29;;;;;;;21.92;4.03;;;;;;;;;;4994922;28;20031;-55
2020/12/23 12:46:56;;;;;;;24.20;3.00;;;;;;;;;;4994665;28;20129;-54
2020/12/23 12:49:23;;;;;;;30.63;3.30;;;;;;;;;;4994477;28;20065;-55
2020/12/23 12:51:50;;;;;;;24.27;4.78;;;;;;;;;;4994381;28;20105;-55
2020/12/23 12:54:17;;;;;;;13.85;3.00;;;;;;;;;;4994543;28;20031;-52
2020/12/23 12:56:44;;;;;;;18.48;3.13;;;;;;;;;;4994580;28;20375;-55
2020/12/23 12:59:11;;;;;;;16.77;3.38;;;;;;;;;;4994678;28;20023;-49
2020/12/23 13:01:39;;;;;;;17.75;3.60;;;;;;;;;;4994341;28;20050;-49
2020/12/23 13:04:07;;;;;;;20.83;4.53;;;;;;;;;;4994238;28;20031;-54
2020/12/23 13:06:34;;;;;;;22.25;3.33;;;;;;;;;;4993170;28;20030;-55
2020/12/23 13:09:02;;;;;;;15.95;3.08;;;;;;;;;;4994082;28;20034;-52
2020/12/23 13:11:29;;;;;;;21.73;3.63;;;;;;;;;;4992947;28;20034;-49
2020/12/23 13:13:56;;;;;;;16.33;3.53;;;;;;;;;;4994236;28;20022;-55
2020/12/23 13:16:30;;;;;;;19.15;3.10;;;;;;;;;;4994185;28;20026;-50
2020/12/23 13:18:57;;;;;;;22.40;3.75;;;;;;;;;;4993953;28;20031;-51
2020/12/23 13:21:24;;;;;;;19.08;2.72;;;;;;;;;;4993986;28;20072;-48
2020/12/23 13:23:51;;;;;;;20.83;3.30;;;;;;;;;;4994014;28;20023;-48
2020/12/23 13:26:19;;;;;;;19.73;3.47;;;;;;;;;;4994004;28;20034;-55
2020/12/23 13:28:46;;;;;;;23.17;3.78;;;;;;;;;;4993749;28;20116;-54
2020/12/23 13:31:14;;;;;;;21.38;3.33;;;;;;;;;;4994005;28;20022;-55
2020/12/23 13:33:41;;;;;;;21.90;3.42;;;;;;;;;;4993794;28;20022;-52
2020/12/23 13:36:09;;;;;;;21.48;3.45;;;;;;;;;;4992435;28;20510;-55
2020/12/23 13:38:37;;;;;;;21.13;3.35;;;;;;;;;;4993745;28;20041;-55
2020/12/23 13:41:04;;;;;;;15.85;2.92;;;;;;;;;;4993675;28;20114;-55
2020/12/23 13:43:31;;;;;;;30.48;4.95;;;;;;;;;;4993545;28;20590;-55
2020/12/23 13:45:58;;;;;;;33.97;3.95;;;;;;;;;;4993827;28;20014;-55
2020/12/23 13:48:25;;;;;;;21.40;3.05;;;;;;;;;;4993280;28;20073;-55
2020/12/23 13:50:52;;;;;;;24.48;4.47;;;;;;;;;;4993405;28;20068;-53
2020/12/23 13:53:18;;;;;;;19.55;3.38;;;;;;;;;;4993623;28;20026;-54
2020/12/23 13:55:45;;;;;;;22.73;3.42;;;;;;;;;;4993439;28;20027;-55
2020/12/23 13:58:13;;;;;;;13.85;3.47;;;;;;;;;;4993285;28;20547;-55
2020/12/23 14:00:40;;;;;;;21.25;3.80;;;;;;;;;;4992121;28;20033;-54
2020/12/23 14:03:07;;;;;;;25.10;2.97;;;;;;;;;;4992640;28;20105;-55
2020/12/23 14:05:34;;;;;;;21.80;3.90;;;;;;;;;;4993185;28;20038;-55
2020/12/23 14:08:01;;;;;;;17.58;3.53;;;;;;;;;;4993256;28;20418;-55
2020/12/23 14:10:28;;;;;;;20.77;3.03;;;;;;;;;;4993134;28;20482;-55
2020/12/23 14:12:55;;;;;;;24.88;4.03;;;;;;;;;;4993102;28;20109;-55
2020/12/23 14:15:25;;;;;;;17.08;3.45;;;;;;;;;;4993185;28;20022;-54
2020/12/23 14:17:52;;;;;;;24.60;3.90;;;;;;;;;;4993283;28;20232;-55
2020/12/23 14:20:19;;;;;;;20.27;3.20;;;;;;;;;;4992862;28;20109;-55
2020/12/23 14:22:47;;;;;;;18.48;3.53;;;;;;;;;;4993036;28;20030;-54
2020/12/23 14:25:14;;;;;;;23.05;3.45;;;;;;;;;;4992981;28;20378;-55
2020/12/23 14:27:43;;;;;;;23.67;3.40;;;;;;;;;;4992759;28;20038;-55
2020/12/23 14:30:10;;;;;;;26.65;3.13;;;;;;;;;;4992813;28;20026;-55
2020/12/23 14:32:37;;;;;;;22.55;4.18;;;;;;;;;;4993061;28;20018;-55
2020/12/23 14:35:04;;;;;;;23.00;4.05;;;;;;;;;;4992619;28;20038;-55
2020/12/23 14:37:31;;;;;;;17.88;3.05;;;;;;;;;;4992871;28;20019;-54
2020/12/23 14:39:58;;;;;;;19.23;3.92;;;;;;;;;;4992979;28;20054;-56
2020/12/23 14:42:25;;;;;;;25.25;3.88;;;;;;;;;;4992621;28;20121;-55
2020/12/23 14:44:52;;;;;;;28.73;3.72;;;;;;;;;;4992592;28;20054;-55
2020/12/23 14:47:19;;;;;;;12.52;3.33;;;;;;;;;;4992424;28;20080;-54
2020/12/23 14:49:46;;;;;;;27.63;4.05;;;;;;;;;;4991205;28;20386;-56
2020/12/23 14:52:13;;;;;;;19.90;3.28;;;;;;;;;;4992629;28;20026;-55
2020/12/23 14:54:40;;;;;;;15.00;3.45;;;;;;;;;;4992772;28;20138;-56
2020/12/23 14:57:07;;;;;;;17.23;3.60;;;;;;;;;;4992704;28;20071;-55
2020/12/23 14:59:34;;;;;;;17.05;3.28;;;;;;;;;;4991233;28;20053;-55
2020/12/23 15:02:01;;;;;;;19.60;3.47;;;;;;;;;;4992640;28;20037;-54
2020/12/23 15:04:28;;;;;;;15.05;3.45;;;;;;;;;;4992357;28;20049;-55
2020/12/23 15:06:55;;;;;;;15.52;3.22;;;;;;;;;;4992573;28;20022;-56
2020/12/23 15:09:22;;;;;;;16.25;3.58;;;;;;;;;;4992531;28;20113;-55
2020/12/23 15:11:50;;;;;;;26.60;5.05;;;;;;;;;;4992448;28;20027;-56
2020/12/23 15:14:17;;;;;;;27.02;4.68;;;;;;;;;;4993540;28;20478;-54
2020/12/23 15:16:44;;;;;;;20.08;4.10;;;;;;;;;;4995784;28;20061;-54
2020/12/23 15:19:11;;;;;;;19.77;3.78;;;;;;;;;;4995090;28;20402;-55
2020/12/23 15:21:38;;;;;;;23.77;3.92;;;;;;;;;;4995703;28;20027;-54
2020/12/23 15:24:06;;;;;;;22.23;3.28;;;;;;;;;;4995747;28;20383;-55
2020/12/23 15:26:33;;;;;;;16.17;3.83;;;;;;;;;;4995325;28;20053;-55
2020/12/23 15:29:00;;;;;;;21.40;3.40;;;;;;;;;;4974726;28;20043;-55
2020/12/23 15:31:27;;;;;;;16.25;3.83;;;;;;;;;;4993182;28;20045;-54
2020/12/23 15:33:54;;;;;;;20.80;4.03;;;;;;;;;;4995489;28;20026;-52
2020/12/23 15:36:21;;;;;;;19.67;3.90;;;;;;;;;;4995416;28;20026;-54
2020/12/23 15:38:48;;;;;;;15.52;3.67;;;;;;;;;;4995726;28;20012;-55
2020/12/23 15:41:15;;;;;;;16.40;3.72;;;;;;;;;;4995226;28;20018;-53
2020/12/23 15:43:42;;;;;;;16.55;3.97;;;;;;;;;;4995470;28;20031;-52
2020/12/23 15:46:11;;;;;;;16.40;3.55;;;;;;;;;;4995548;28;20062;-55
2020/12/23 15:48:39;;;;;;;22.25;3.15;;;;;;;;;;4994715;28;20050;-51
2020/12/23 15:51:09;;;;;;;16.27;3.33;;;;;;;;;;4995301;28;20080;-55
2020/12/23 15:53:36;;;;;;;14.60;3.53;;;;;;;;;;4995100;28;20022;-56
2020/12/23 15:56:07;;;;;;;14.00;3.85;;;;;;;;;;4995373;28;20544;-50
2020/12/23 15:58:34;;;;;;;14.30;3.30;;;;;;;;;;4995045;28;20034;-55
2020/12/23 16:01:05;;;;;;;10.25;3.00;;;;;;;;;;4994938;28;20054;-55
2020/12/23 16:03:33;;;;;;;13.85;3.60;;;;;;;;;;4994873;28;20545;-55
2020/12/23 16:06:03;;;;;;;9.93;2.90;;;;;;;;;;4994951;28;20089;-55
2020/12/23 16:08:30;;;;;;;18.45;3.53;;;;;;;;;;4995201;28;20066;-54
2020/12/23 16:10:58;;;;;;;13.35;3.20;;;;;;;;;;4995462;28;20509;-54
2020/12/23 16:13:25;;;;;;;21.70;3.58;;;;;;;;;;4995511;28;20033;-54
2020/12/23 16:15:56;;;;;;;14.93;2.78;;;;;;;;;;4995247;28;20479;-56
2020/12/23 16:18:23;;;;;;;14.55;2.70;;;;;;;;;;4995151;28;20046;-53
2020/12/23 16:20:51;;;;;;;15.02;2.65;;;;;;;;;;4995364;28;20081;-55
2020/12/23 16:23:18;;;;;;;12.82;3.05;;;;;;;;;;4995140;28;20134;-55
2020/12/23 16:25:45;;;;;;;15.40;2.78;;;;;;;;;;4994378;28;20018;-52
2020/12/23 16:28:13;;;;;;;13.60;2.80;;;;;;;;;;4995112;28;20030;-54
2020/12/23 16:30:40;;;;;;;14.35;2.97;;;;;;;;;;4994892;28;20416;-56
2020/12/23 16:33:07;;;;;;;18.52;3.25;;;;;;;;;;4994858;28;20106;-53
2020/12/23 16:35:34;;;;;;;10.70;2.72;;;;;;;;;;4995079;28;20022;-53
2020/12/23 16:38:01;;;;;;;10.10;2.33;;;;;;;;;;4994776;28;20027;-55
2020/12/23 16:40:28;;;;;;;8.18;2.33;;;;;;;;;;4994733;28;20037;-54
2020/12/23 16:43:00;;;;;;;10.63;2.55;;;;;;;;;;4994761;28;20046;-53
2020/12/23 16:45:27;;;;;;;13.77;3.33;;;;;;;;;;4994708;28;20503;-56
2020/12/23 16:47:54;;;;;;;12.00;2.70;;;;;;;;;;4994359;28;20491;-54
2020/12/23 16:50:22;;;;;;;17.60;2.75;;;;;;;;;;4994712;28;20026;-53
2020/12/23 16:52:49;;;;;;;13.52;2.65;;;;;;;;;;4994668;28;20073;-54
2020/12/23 16:55:16;;;;;;;12.70;2.53;;;;;;;;;;4994497;28;20434;-54
2020/12/23 16:57:43;;;;;;;14.27;2.60;;;;;;;;;;4994609;28;20018;-52
2020/12/23 17:00:10;;;;;;;13.52;2.88;;;;;;;;;;4994593;28;20431;-51
2020/12/23 17:02:37;;;;;;;13.13;3.00;;;;;;;;;;4994485;28;20053;-50
2020/12/23 17:05:04;;;;;;;13.40;2.97;;;;;;;;;;4977666;28;20062;-51
2020/12/23 17:07:32;;;;;;;15.32;2.97;;;;;;;;;;4994377;28;20018;-52
2020/12/23 17:09:59;;;;;;;15.23;2.60;;;;;;;;;;4994227;28;20038;-54
2020/12/23 17:12:26;;;;;;;13.32;1.95;;;;;;;;;;4976953;28;20061;-53
2020/12/23 17:14:53;;;;;;;12.52;2.75;;;;;;;;;;4994215;28;20026;-50
2020/12/23 17:17:19;;;;;;;12.75;2.72;;;;;;;;;;4994177;28;20145;-50
2020/12/23 17:19:46;;;;;;;19.33;3.03;;;;;;;;;;4994012;28;20080;-48
2020/12/23 17:22:13;;;;;;;18.58;3.35;;;;;;;;;;4994277;28;20022;-50
2020/12/23 17:24:41;;;;;;;10.88;2.63;;;;;;;;;;4989515;28;20014;-53
2020/12/23 17:27:09;;;;;;;19.85;2.40;;;;;;;;;;4993141;28;20023;-49
2020/12/23 17:29:36;;;;;;;12.80;2.88;;;;;;;;;;4989699;28;20045;-56
2020/12/23 17:32:03;;;;;;;17.30;3.47;;;;;;;;;;4990922;28;20024;-59
2020/12/23 17:34:30;;;;;;;11.10;2.22;;;;;;;;;;4992679;28;20027;-56
2020/12/23 17:37:01;;;;;;;8.02;2.30;;;;;;;;;;4992798;28;20474;-50
2020/12/23 17:39:28;;;;;;;13.48;2.10;;;;;;;;;;4993321;28;20026;-53
2020/12/23 17:41:55;;;;;;;8.63;2.15;;;;;;;;;;4991081;28;20076;-54
2020/12/23 17:44:22;;;;;;;9.90;2.42;;;;;;;;;;4990384;28;20406;-49
2020/12/23 17:46:57;;;;;;;13.18;2.38;;;;;;;;;;4986724;28;20041;-48
2020/12/23 17:49:25;;;;;;;8.80;2.20;;;;;;;;;;4990169;28;20077;-48
2020/12/23 17:51:52;;;;;;;11.95;2.35;;;;;;;;;;4992940;28;20045;-52
2020/12/23 17:54:20;;;;;;;13.38;2.20;;;;;;;;;;4988845;28;20490;-52
2020/12/23 17:56:47;;;;;;;6.50;2.33;;;;;;;;;;4991861;28;20029;-54
2020/12/23 17:59:15;;;;;;;10.40;2.60;;;;;;;;;;4991118;28;20536;-49
2020/12/23 18:01:42;;;;;;;18.90;2.25;;;;;;;;;;4993301;28;20041;-52
2020/12/23 18:04:10;;;;;;;7.22;2.20;;;;;;;;;;4992978;28;20046;-53
2020/12/23 18:06:38;;;;;;;12.80;2.50;;;;;;;;;;4992882;28;20049;-52
2020/12/23 18:09:07;;;;;;;12.45;1.98;;;;;;;;;;4992484;28;20070;-54
2020/12/23 18:11:35;;;;;;;7.88;1.75;;;;;;;;;;4992780;28;20026;-51
2020/12/23 18:14:02;;;;;;;6.78;1.77;;;;;;;;;;4992832;28;20029;-54
2020/12/23 18:16:29;;;;;;;7.03;1.88;;;;;;;;;;4990941;28;20125;-55
2020/12/23 18:18:56;;;;;;;8.48;2.03;;;;;;;;;;4990201;28;20023;-52
2020/12/23 18:21:27;;;;;;;10.55;2.33;;;;;;;;;;4992689;28;20022;-52
2020/12/23 18:23:54;;;;;;;14.82;2.17;;;;;;;;;;4992480;28;20050;-53
2020/12/23 18:26:29;;;;;;;7.55;2.05;;;;;;;;;;4992168;28;20033;-54
2020/12/23 18:28:58;;;;;;;6.20;1.80;;;;;;;;;;4992846;28;20099;-56
2020/12/23 18:31:25;;;;;;;7.45;2.08;;;;;;;;;;4992393;28;20517;-56
2020/12/23 18:33:52;;;;;;;7.57;2.05;;;;;;;;;;4992796;28;20048;-58
2020/12/23 18:36:19;;;;;;;10.30;1.98;;;;;;;;;;4988243;28;20486;-52
2020/12/23 18:38:47;;;;;;;11.43;1.70;;;;;;;;;;4991773;28;20085;-58
2020/12/23 18:41:14;;;;;;;11.00;1.77;;;;;;;;;;4992606;28;20025;-59
2020/12/23 18:43:41;;;;;;;9.32;2.15;;;;;;;;;;4992476;28;20038;-59
2020/12/23 18:46:08;;;;;;;11.73;1.90;;;;;;;;;;4992271;28;20026;-55
2020/12/23 18:48:39;;;;;;;6.32;1.58;;;;;;;;;;4991766;28;20692;-54
2020/12/23 18:51:06;;;;;;;9.05;2.00;;;;;;;;;;4992427;28;20053;-56
2020/12/23 18:53:34;;;;;;;7.50;1.70;;;;;;;;;;4990708;28;21307;-55
2020/12/23 18:56:01;;;;;;;6.35;1.77;;;;;;;;;;4992211;28;20019;-55
2020/12/23 18:58:28;;;;;;;6.38;1.80;;;;;;;;;;4992207;28;20571;-57
2020/12/23 19:00:55;;;;;;;7.35;2.08;;;;;;;;;;4992148;28;20030;-60
2020/12/23 19:03:22;;;;;;;7.18;1.75;;;;;;;;;;4992111;28;20022;-61
2020/12/23 19:05:49;;;;;;;7.70;1.85;;;;;;;;;;4992276;28;20026;-62
2020/12/23 19:08:16;;;;;;;5.22;1.35;;;;;;;;;;4974413;28;20042;-62
2020/12/23 19:10:43;;;;;;;7.03;1.95;;;;;;;;;;4992338;28;20025;-62
2020/12/23 19:13:10;;;;;;;9.32;2.30;;;;;;;;;;4992171;28;20026;-62
2020/12/23 19:15:37;;;;;;;5.30;1.83;;;;;;;;;;4992269;28;20442;-64
2020/12/23 19:18:04;;;;;;;5.30;1.80;;;;;;;;;;4992181;28;20022;-60
2020/12/23 19:20:33;;;;;;;4.22;1.83;;;;;;;;;;4991907;28;20030;-59
2020/12/23 19:23:00;;;;;;;7.00;1.92;;;;;;;;;;4991606;28;20026;-61
2020/12/23 19:25:30;;;;;;;10.18;2.22;;;;;;;;;;4991413;28;20049;-59
2020/12/23 19:27:58;;;;;;;10.70;1.90;;;;;;;;;;4991950;28;20110;-57
2020/12/23 19:30:26;;;;;;;7.88;1.92;;;;;;;;;;4991867;28;20037;-54
2020/12/23 19:33:04;;;;;;;5.88;1.23;;;;;;;;;;4989688;28;20085;-55
2020/12/23 19:35:31;;;;;;;7.47;1.88;;;;;;;;;;4991115;28;20022;-60
2020/12/23 19:37:59;;;;;;;11.80;2.38;;;;;;;;;;4991549;28;20026;-53
2020/12/23 19:40:27;;;;;;;8.93;1.58;;;;;;;;;;4991149;28;20475;-53
2020/12/23 19:42:55;;;;;;;3.10;1.10;;;;;;;;;;4986718;28;20030;-57
2020/12/23 19:45:23;;;;;;;7.70;1.80;;;;;;;;;;4991528;28;20533;-56
2020/12/23 19:47:57;;;;;;;8.75;1.83;;;;;;;;;;4990377;28;20137;-53
2020/12/23 19:50:27;;;;;;;4.95;1.42;;;;;;;;;;4991443;28;20030;-58
2020/12/23 19:52:55;;;;;;;6.15;1.67;;;;;;;;;;4991890;28;20019;-52
2020/12/23 19:55:22;;;;;;;6.35;1.45;;;;;;;;;;4991266;28;20117;-51
2020/12/23 19:57:49;;;;;;;6.82;1.40;;;;;;;;;;4991445;28;20022;-54
2020/12/23 20:00:16;;;;;;;7.05;1.65;;;;;;;;;;4992050;28;20022;-50
2020/12/23 20:02:43;;;;;;;13.35;1.92;;;;;;;;;;4995581;28;20025;-55
2020/12/23 20:05:10;;;;;;;6.10;1.25;;;;;;;;;;4995506;28;20018;-58
2020/12/23 20:07:37;;;;;;;6.78;1.50;;;;;;;;;;4995774;28;20103;-58
2020/12/23 20:10:06;;;;;;;9.68;1.15;;;;;;;;;;4994708;28;20041;-56
2020/12/23 20:12:37;;;;;;;7.57;1.95;;;;;;;;;;4994639;28;20090;-55
2020/12/23 20:15:07;;;;;;;10.30;1.80;;;;;;;;;;4995408;28;20027;-58
2020/12/23 20:17:40;;;;;;;5.90;1.48;;;;;;;;;;4987970;28;20094;-52
2020/12/23 20:20:08;;;;;;;6.40;1.30;;;;;;;;;;4981208;28;20042;-54
2020/12/23 20:22:36;;;;;;;12.20;1.70;;;;;;;;;;4994600;28;20045;-55
2020/12/23 20:25:03;;;;;;;6.57;1.58;;;;;;;;;;4994166;28;20027;-53
2020/12/23 20:27:30;;;;;;;4.32;1.60;;;;;;;;;;4994712;28;20018;-53
2020/12/23 20:29:57;;;;;;;7.90;1.73;;;;;;;;;;4994209;28;20085;-52
2020/12/23 20:32:26;;;;;;;7.03;1.50;;;;;;;;;;4994203;28;20081;-53
2020/12/23 20:34:53;;;;;;;5.75;1.40;;;;;;;;;;4994615;28;20080;-52
2020/12/23 20:37:21;;;;;;;7.30;1.52;;;;;;;;;;4994204;28;20018;-52
2020/12/23 20:39:48;;;;;;;12.10;1.38;;;;;;;;;;4989057;28;20125;-57
2020/12/23 20:42:16;;;;;;;13.20;1.85;;;;;;;;;;4994124;28;20053;-56
2020/12/23 20:44:43;;;;;;;18.45;2.03;;;;;;;;;;4993616;28;20065;-51
2020/12/23 20:47:14;;;;;;;27.73;2.30;;;;;;;;;;4973947;28;20066;-52
2020/12/23 20:49:43;;;;;;;7.20;1.70;;;;;;;;;;4994320;28;20043;-50
2020/12/23 20:52:10;;;;;;;13.77;2.10;;;;;;;;;;4994581;28;20030;-48
2020/12/23 20:54:38;;;;;;;20.13;1.77;;;;;;;;;;4993748;28;20019;-49
2020/12/23 20:57:05;;;;;;;14.88;1.90;;;;;;;;;;4993545;28;20105;-56
2020/12/23 20:59:32;;;;;;;13.90;2.10;;;;;;;;;;4993173;28;20045;-53
2020/12/23 21:01:59;;;;;;;20.23;2.13;;;;;;;;;;4994123;28;20437;-52
2020/12/23 21:04:26;;;;;;;9.38;1.70;;;;;;;;;;4993744;28;20065;-49
2020/12/23 21:06:53;;;;;;;16.25;2.47;;;;;;;;;;4993978;28;20064;-57
2020/12/23 21:09:21;;;;;;;13.45;2.05;;;;;;;;;;4993760;28;20030;-57
2020/12/23 21:11:49;;;;;;;13.02;2.38;;;;;;;;;;4981380;28;20027;-50
2020/12/23 21:14:17;;;;;;;9.35;2.08;;;;;;;;;;4993848;28;20045;-52
2020/12/23 21:16:50;;;;;;;5.97;1.40;;;;;;;;;;4989954;28;20093;-52
2020/12/23 21:19:18;;;;;;;6.53;1.67;;;;;;;;;;4989350;28;20026;-54
2020/12/23 21:21:45;;;;;;;18.25;2.22;;;;;;;;;;4993399;28;20428;-51
2020/12/23 21:24:12;;;;;;;7.78;1.85;;;;;;;;;;4992962;28;20109;-51
2020/12/23 21:26:40;;;;;;;17.70;2.40;;;;;;;;;;4993264;28;20544;-53
2020/12/23 21:29:07;;;;;;;15.20;2.78;;;;;;;;;;4980072;28;20121;-58
2020/12/23 21:31:35;;;;;;;15.05;2.70;;;;;;;;;;4993602;28;20019;-54
2020/12/23 21:34:02;;;;;;;8.00;1.85;;;;;;;;;;4993285;28;20022;-55
2020/12/23 21:36:29;;;;;;;13.07;2.28;;;;;;;;;;4993467;28;20026;-53
2020/12/23 21:38:56;;;;;;;13.02;2.80;;;;;;;;;;4993229;28;20026;-52
2020/12/23 21:41:23;;;;;;;14.13;1.58;;;;;;;;;;4993025;28;20030;-57
2020/12/23 21:43:50;;;;;;;14.32;2.08;;;;;;;;;;4974430;28;20037;-53
2020/12/23 21:46:18;;;;;;;14.20;2.20;;;;;;;;;;4993066;28;20019;-52
2020/12/23 21:48:45;;;;;;;10.98;1.73;;;;;;;;;;4992708;28;20514;-51
2020/12/23 21:51:13;;;;;;;8.20;1.67;;;;;;;;;;4972392;28;20030;-51
2020/12/23 21:53:40;;;;;;;12.15;1.83;;;;;;;;;;4968390;28;20022;-52
2020/12/23 21:56:08;;;;;;;13.10;2.13;;;;;;;;;;4992221;28;20022;-54
2020/12/23 21:58:35;;;;;;;8.85;1.90;;;;;;;;;;4991785;28;20022;-56
2020/12/23 22:01:04;;;;;;;10.77;2.13;;;;;;;;;;4991589;28;20053;-53
2020/12/23 22:03:31;;;;;;;12.25;2.20;;;;;;;;;;4992891;28;20031;-53
2020/12/23 22:05:58;;;;;;;12.80;2.65;;;;;;;;;;4992811;28;20023;-55
2020/12/23 22:08:25;;;;;;;11.50;1.55;;;;;;;;;;4992635;28;20457;-56
2020/12/23 22:10:52;;;;;;;8.27;1.33;;;;;;;;;;4992554;28;20026;-58
2020/12/23 22:13:19;;;;;;;7.28;1.52;;;;;;;;;;4992854;28;20018;-61
2020/12/23 22:15:46;;;;;;;9.23;2.08;;;;;;;;;;4992814;28;20027;-55
2020/12/23 22:18:15;;;;;;;6.78;1.52;;;;;;;;;;4992651;28;20525;-51
2020/12/23 22:20:42;;;;;;;7.53;1.65;;;;;;;;;;4992434;28;20435;-56
2020/12/23 22:23:09;;;;;;;11.63;1.75;;;;;;;;;;4992281;28;20408;-52
2020/12/23 22:25:35;;;;;;;11.57;2.08;;;;;;;;;;4992095;28;20026;-55
2020/12/23 22:28:02;;;;;;;7.97;2.35;;;;;;;;;;4992334;28;20042;-51
2020/12/23 22:30:29;;;;;;;11.75;1.73;;;;;;;;;;4992419;28;20030;-56
2020/12/23 22:32:56;;;;;;;13.52;1.60;;;;;;;;;;4991994;28;20053;-53
2020/12/23 22:35:23;;;;;;;14.43;2.42;;;;;;;;;;4992136;28;20023;-56
2020/12/23 22:37:51;;;;;;;7.10;2.00;;;;;;;;;;4992381;28;20486;-52
2020/12/23 22:40:18;;;;;;;11.10;1.88;;;;;;;;;;4992010;28;20038;-51
2020/12/23 22:42:45;;;;;;;9.10;1.88;;;;;;;;;;4992147;28;20023;-53
2020/12/23 22:45:12;;;;;;;12.63;2.25;;;;;;;;;;4992252;28;20034;-51
2020/12/23 22:47:39;;;;;;;10.63;2.10;;;;;;;;;;4991839;28;20060;-53
2020/12/23 22:50:07;;;;;;;12.85;2.40;;;;;;;;;;4992110;28;20473;-53
2020/12/23 22:52:37;;;;;;;11.55;1.85;;;;;;;;;;4991900;28;20022;-51
2020/12/23 22:55:06;;;;;;;11.95;1.98;;;;;;;;;;4992228;28;20057;-50
2020/12/23 22:57:33;;;;;;;7.72;2.22;;;;;;;;;;4991963;28;20034;-58
2020/12/23 23:00:00;;;;;;;9.65;2.17;;;;;;;;;;4991984;28;20104;-57
2020/12/23 23:02:30;;;;;;;11.38;2.30;;;;;;;;;;4992036;28;20023;-54
2020/12/23 23:04:57;;;;;;;9.85;2.22;;;;;;;;;;4991796;28;20524;-50
2020/12/23 23:07:24;;;;;;;7.38;1.70;;;;;;;;;;4991693;28;20048;-52
2020/12/23 23:09:51;;;;;;;12.25;1.58;;;;;;;;;;4991836;28;20503;-50
2020/12/23 23:12:18;;;;;;;10.60;1.50;;;;;;;;;;4991702;28;20502;-51
2020/12/23 23:14:45;;;;;;;11.50;2.03;;;;;;;;;;4991642;28;20026;-53
2020/12/23 23:17:12;;;;;;;12.85;2.22;;;;;;;;;;4992006;28;20105;-53
2020/12/23 23:19:39;;;;;;;16.42;2.28;;;;;;;;;;4991538;28;20024;-57
2020/12/23 23:22:07;;;;;;;16.00;2.42;;;;;;;;;;4991585;28;20021;-51
2020/12/23 23:24:37;;;;;;;12.65;2.50;;;;;;;;;;4987183;28;20604;-53